sensor_id;sensor_type;location;lat;lon;timestamp;P1;durP1;ratioP1;P2;durP2;ratioP2
72209;SDS011;60113;48.762;12.302;2024-02-15T00:01:10;36.63;;;27.17;;
72209;SDS011;60113;48.762;12.302;2024-02-15T00:03:36;37.58;;;26.88;;
72209;SDS011;60113;48.762;12.302;2024-02-15T00:06:01;35.38;;;26.40;;
72209;SDS011;60113;48.762;12.302;2024-02-15T00:08:28;31.85;;;26.20;;
72209;SDS011;60113;48.762;12.302;2024-02-15T00:10:54;42.67;;;28.13;;
72209;SDS011;60113;48.762;12.302;2024-02-15T00:13:19;38.47;;;27.05;;
72209;SDS011;60113;48.762;12.302;2024-02-15T00:15:45;36.85;;;26.58;;
72209;SDS011;60113;48.762;12.302;2024-02-15T00:18:13;39.50;;;27.13;;
72209;SDS011;60113;48.762;12.302;2024-02-15T00:20:39;37.70;;;27.30;;
72209;SDS011;60113;48.762;12.302;2024-02-15T00:23:04;39.75;;;27.73;;
72209;SDS011;60113;48.762;12.302;2024-02-15T00:25:31;38.80;;;27.95;;
72209;SDS011;60113;48.762;12.302;2024-02-15T00:27:57;36.25;;;28.30;;
72209;SDS011;60113;48.762;12.302;2024-02-15T00:30:25;43.20;;;28.40;;
72209;SDS011;60113;48.762;12.302;2024-02-15T00:32:52;40.75;;;28.95;;
72209;SDS011;60113;48.762;12.302;2024-02-15T00:35:17;37.17;;;28.52;;
72209;SDS011;60113;48.762;12.302;2024-02-15T00:37:43;41.45;;;31.13;;
72209;SDS011;60113;48.762;12.302;2024-02-15T00:40:10;44.90;;;30.60;;
72209;SDS011;60113;48.762;12.302;2024-02-15T00:42:36;37.72;;;30.40;;
72209;SDS011;60113;48.762;12.302;2024-02-15T00:45:02;49.22;;;30.88;;
72209;SDS011;60113;48.762;12.302;2024-02-15T00:47:28;41.97;;;31.00;;
72209;SDS011;60113;48.762;12.302;2024-02-15T00:49:54;42.10;;;30.25;;
72209;SDS011;60113;48.762;12.302;2024-02-15T00:52:19;37.20;;;27.35;;
72209;SDS011;60113;48.762;12.302;2024-02-15T00:54:45;39.63;;;27.85;;
72209;SDS011;60113;48.762;12.302;2024-02-15T00:57:11;44.80;;;31.00;;
72209;SDS011;60113;48.762;12.302;2024-02-15T00:59:37;44.63;;;31.70;;
72209;SDS011;60113;48.762;12.302;2024-02-15T01:02:02;46.13;;;30.40;;
72209;SDS011;60113;48.762;12.302;2024-02-15T01:04:29;36.38;;;29.38;;
72209;SDS011;60113;48.762;12.302;2024-02-15T01:06:54;42.60;;;29.50;;
72209;SDS011;60113;48.762;12.302;2024-02-15T01:09:21;42.10;;;30.30;;
72209;SDS011;60113;48.762;12.302;2024-02-15T01:11:48;41.13;;;30.95;;
72209;SDS011;60113;48.762;12.302;2024-02-15T01:14:14;45.63;;;31.48;;
72209;SDS011;60113;48.762;12.302;2024-02-15T01:16:40;43.85;;;31.70;;
72209;SDS011;60113;48.762;12.302;2024-02-15T01:19:09;42.65;;;30.67;;
72209;SDS011;60113;48.762;12.302;2024-02-15T01:21:34;44.25;;;33.30;;
72209;SDS011;60113;48.762;12.302;2024-02-15T01:24:00;42.97;;;31.70;;
72209;SDS011;60113;48.762;12.302;2024-02-15T01:26:26;43.90;;;31.75;;
72209;SDS011;60113;48.762;12.302;2024-02-15T01:28:52;44.03;;;30.85;;
72209;SDS011;60113;48.762;12.302;2024-02-15T01:31:17;47.03;;;33.75;;
72209;SDS011;60113;48.762;12.302;2024-02-15T01:33:43;39.22;;;28.77;;
72209;SDS011;60113;48.762;12.302;2024-02-15T01:36:13;48.28;;;34.28;;
72209;SDS011;60113;48.762;12.302;2024-02-15T01:38:39;36.67;;;28.02;;
72209;SDS011;60113;48.762;12.302;2024-02-15T01:41:05;40.65;;;29.60;;
72209;SDS011;60113;48.762;12.302;2024-02-15T01:43:30;30.45;;;23.63;;
72209;SDS011;60113;48.762;12.302;2024-02-15T01:45:56;35.47;;;24.60;;
72209;SDS011;60113;48.762;12.302;2024-02-15T01:48:24;35.63;;;25.63;;
72209;SDS011;60113;48.762;12.302;2024-02-15T01:50:50;35.20;;;25.58;;
72209;SDS011;60113;48.762;12.302;2024-02-15T01:53:16;47.42;;;27.02;;
72209;SDS011;60113;48.762;12.302;2024-02-15T01:55:42;35.95;;;26.60;;
72209;SDS011;60113;48.762;12.302;2024-02-15T01:58:09;37.30;;;27.85;;
72209;SDS011;60113;48.762;12.302;2024-02-15T02:00:35;37.95;;;27.02;;
72209;SDS011;60113;48.762;12.302;2024-02-15T02:03:04;37.47;;;26.42;;
72209;SDS011;60113;48.762;12.302;2024-02-15T02:05:31;41.05;;;29.83;;
72209;SDS011;60113;48.762;12.302;2024-02-15T02:07:56;39.90;;;30.13;;
72209;SDS011;60113;48.762;12.302;2024-02-15T02:10:29;41.80;;;28.85;;
72209;SDS011;60113;48.762;12.302;2024-02-15T02:13:00;42.78;;;29.38;;
72209;SDS011;60113;48.762;12.302;2024-02-15T02:15:27;41.90;;;30.02;;
72209;SDS011;60113;48.762;12.302;2024-02-15T02:17:53;45.08;;;29.02;;
72209;SDS011;60113;48.762;12.302;2024-02-15T02:20:19;49.08;;;31.23;;
72209;SDS011;60113;48.762;12.302;2024-02-15T02:22:48;50.22;;;31.70;;
72209;SDS011;60113;48.762;12.302;2024-02-15T02:25:15;36.47;;;27.48;;
72209;SDS011;60113;48.762;12.302;2024-02-15T02:27:41;36.95;;;26.33;;
72209;SDS011;60113;48.762;12.302;2024-02-15T02:30:13;40.40;;;27.40;;
72209;SDS011;60113;48.762;12.302;2024-02-15T02:32:42;39.03;;;25.60;;
72209;SDS011;60113;48.762;12.302;2024-02-15T02:35:07;38.58;;;25.52;;
72209;SDS011;60113;48.762;12.302;2024-02-15T02:37:37;38.20;;;24.95;;
72209;SDS011;60113;48.762;12.302;2024-02-15T02:40:07;35.40;;;25.15;;
72209;SDS011;60113;48.762;12.302;2024-02-15T02:42:36;30.92;;;24.05;;
72209;SDS011;60113;48.762;12.302;2024-02-15T02:45:11;35.17;;;24.35;;
72209;SDS011;60113;48.762;12.302;2024-02-15T02:47:36;32.22;;;24.10;;
72209;SDS011;60113;48.762;12.302;2024-02-15T02:50:01;30.35;;;22.77;;
72209;SDS011;60113;48.762;12.302;2024-02-15T02:52:28;36.03;;;23.63;;
72209;SDS011;60113;48.762;12.302;2024-02-15T02:54:53;39.38;;;26.45;;
72209;SDS011;60113;48.762;12.302;2024-02-15T02:57:19;36.30;;;25.55;;
72209;SDS011;60113;48.762;12.302;2024-02-15T02:59:44;34.70;;;25.10;;
72209;SDS011;60113;48.762;12.302;2024-02-15T03:02:10;31.73;;;24.02;;
72209;SDS011;60113;48.762;12.302;2024-02-15T03:04:35;33.00;;;24.27;;
72209;SDS011;60113;48.762;12.302;2024-02-15T03:07:02;30.88;;;21.92;;
72209;SDS011;60113;48.762;12.302;2024-02-15T03:09:27;28.08;;;21.13;;
72209;SDS011;60113;48.762;12.302;2024-02-15T03:11:54;32.17;;;22.25;;
72209;SDS011;60113;48.762;12.302;2024-02-15T03:14:20;31.48;;;24.40;;
72209;SDS011;60113;48.762;12.302;2024-02-15T03:16:46;31.35;;;22.52;;
72209;SDS011;60113;48.762;12.302;2024-02-15T03:19:11;27.45;;;22.08;;
72209;SDS011;60113;48.762;12.302;2024-02-15T03:21:37;23.25;;;18.85;;
72209;SDS011;60113;48.762;12.302;2024-02-15T03:24:02;26.15;;;20.98;;
72209;SDS011;60113;48.762;12.302;2024-02-15T03:26:29;29.65;;;22.77;;
72209;SDS011;60113;48.762;12.302;2024-02-15T03:28:58;30.90;;;24.40;;
72209;SDS011;60113;48.762;12.302;2024-02-15T03:31:24;33.38;;;24.90;;
72209;SDS011;60113;48.762;12.302;2024-02-15T03:33:49;30.42;;;24.35;;
72209;SDS011;60113;48.762;12.302;2024-02-15T03:36:16;32.65;;;24.63;;
72209;SDS011;60113;48.762;12.302;2024-02-15T03:38:43;35.67;;;25.25;;
72209;SDS011;60113;48.762;12.302;2024-02-15T03:41:10;33.00;;;24.90;;
72209;SDS011;60113;48.762;12.302;2024-02-15T03:43:35;35.60;;;24.90;;
72209;SDS011;60113;48.762;12.302;2024-02-15T03:46:00;32.63;;;24.05;;
72209;SDS011;60113;48.762;12.302;2024-02-15T03:48:26;34.22;;;24.23;;
72209;SDS011;60113;48.762;12.302;2024-02-15T03:50:51;28.90;;;23.67;;
72209;SDS011;60113;48.762;12.302;2024-02-15T03:53:18;34.58;;;24.60;;
72209;SDS011;60113;48.762;12.302;2024-02-15T03:55:43;30.90;;;23.67;;
72209;SDS011;60113;48.762;12.302;2024-02-15T03:58:09;37.40;;;24.20;;
72209;SDS011;60113;48.762;12.302;2024-02-15T04:00:34;32.45;;;24.92;;
72209;SDS011;60113;48.762;12.302;2024-02-15T04:03:00;34.47;;;25.85;;
72209;SDS011;60113;48.762;12.302;2024-02-15T04:05:26;34.95;;;26.40;;
72209;SDS011;60113;48.762;12.302;2024-02-15T04:07:51;33.95;;;25.25;;
72209;SDS011;60113;48.762;12.302;2024-02-15T04:10:18;33.50;;;26.70;;
72209;SDS011;60113;48.762;12.302;2024-02-15T04:12:44;40.25;;;26.60;;
72209;SDS011;60113;48.762;12.302;2024-02-15T04:15:09;37.22;;;25.52;;
72209;SDS011;60113;48.762;12.302;2024-02-15T04:17:40;31.52;;;25.05;;
72209;SDS011;60113;48.762;12.302;2024-02-15T04:20:07;34.13;;;25.38;;
72209;SDS011;60113;48.762;12.302;2024-02-15T04:22:35;31.42;;;24.38;;
72209;SDS011;60113;48.762;12.302;2024-02-15T04:25:06;31.42;;;24.38;;
72209;SDS011;60113;48.762;12.302;2024-02-15T04:27:35;29.40;;;23.95;;
72209;SDS011;60113;48.762;12.302;2024-02-15T04:30:01;29.40;;;22.80;;
72209;SDS011;60113;48.762;12.302;2024-02-15T04:32:27;32.85;;;24.20;;
72209;SDS011;60113;48.762;12.302;2024-02-15T04:34:54;31.17;;;23.17;;
72209;SDS011;60113;48.762;12.302;2024-02-15T04:37:19;29.75;;;22.73;;
72209;SDS011;60113;48.762;12.302;2024-02-15T04:39:45;33.22;;;24.30;;
72209;SDS011;60113;48.762;12.302;2024-02-15T04:42:13;31.60;;;23.35;;
72209;SDS011;60113;48.762;12.302;2024-02-15T04:44:38;30.85;;;22.58;;
72209;SDS011;60113;48.762;12.302;2024-02-15T04:47:05;25.60;;;21.20;;
72209;SDS011;60113;48.762;12.302;2024-02-15T04:49:31;31.98;;;23.95;;
72209;SDS011;60113;48.762;12.302;2024-02-15T04:51:57;25.90;;;20.10;;
72209;SDS011;60113;48.762;12.302;2024-02-15T04:54:23;29.92;;;22.55;;
72209;SDS011;60113;48.762;12.302;2024-02-15T04:56:48;25.70;;;19.05;;
72209;SDS011;60113;48.762;12.302;2024-02-15T04:59:17;26.67;;;19.98;;
72209;SDS011;60113;48.762;12.302;2024-02-15T05:01:44;24.08;;;18.88;;
72209;SDS011;60113;48.762;12.302;2024-02-15T05:04:11;23.83;;;18.00;;
72209;SDS011;60113;48.762;12.302;2024-02-15T05:06:37;28.30;;;21.40;;
72209;SDS011;60113;48.762;12.302;2024-02-15T05:09:04;28.27;;;21.65;;
72209;SDS011;60113;48.762;12.302;2024-02-15T05:11:35;27.20;;;20.25;;
72209;SDS011;60113;48.762;12.302;2024-02-15T05:14:02;26.25;;;19.92;;
72209;SDS011;60113;48.762;12.302;2024-02-15T05:16:30;24.98;;;19.33;;
72209;SDS011;60113;48.762;12.302;2024-02-15T05:18:57;27.10;;;19.02;;
72209;SDS011;60113;48.762;12.302;2024-02-15T05:21:22;30.17;;;20.40;;
72209;SDS011;60113;48.762;12.302;2024-02-15T05:23:48;26.83;;;20.30;;
72209;SDS011;60113;48.762;12.302;2024-02-15T05:26:14;32.97;;;22.25;;
72209;SDS011;60113;48.762;12.302;2024-02-15T05:28:41;38.10;;;24.77;;
72209;SDS011;60113;48.762;12.302;2024-02-15T05:33:34;30.10;;;22.05;;
72209;SDS011;60113;48.762;12.302;2024-02-15T05:36:00;28.10;;;21.63;;
72209;SDS011;60113;48.762;12.302;2024-02-15T05:38:25;33.42;;;22.58;;
72209;SDS011;60113;48.762;12.302;2024-02-15T05:40:50;33.05;;;23.45;;
72209;SDS011;60113;48.762;12.302;2024-02-15T05:43:16;31.90;;;25.05;;
72209;SDS011;60113;48.762;12.302;2024-02-15T05:45:42;28.90;;;22.90;;
72209;SDS011;60113;48.762;12.302;2024-02-15T05:48:07;33.97;;;24.10;;
72209;SDS011;60113;48.762;12.302;2024-02-15T05:50:33;32.70;;;24.05;;
72209;SDS011;60113;48.762;12.302;2024-02-15T05:52:59;39.88;;;26.35;;
72209;SDS011;60113;48.762;12.302;2024-02-15T05:55:26;29.00;;;23.10;;
72209;SDS011;60113;48.762;12.302;2024-02-15T05:57:54;29.50;;;23.48;;
72209;SDS011;60113;48.762;12.302;2024-02-15T06:00:20;29.33;;;22.83;;
72209;SDS011;60113;48.762;12.302;2024-02-15T06:02:46;29.80;;;22.15;;
72209;SDS011;60113;48.762;12.302;2024-02-15T06:05:11;29.38;;;22.63;;
72209;SDS011;60113;48.762;12.302;2024-02-15T06:07:37;35.45;;;24.60;;
72209;SDS011;60113;48.762;12.302;2024-02-15T06:10:04;33.97;;;23.90;;
72209;SDS011;60113;48.762;12.302;2024-02-15T06:12:32;34.10;;;25.42;;
72209;SDS011;60113;48.762;12.302;2024-02-15T06:14:58;32.72;;;23.67;;
72209;SDS011;60113;48.762;12.302;2024-02-15T06:17:23;30.98;;;23.75;;
72209;SDS011;60113;48.762;12.302;2024-02-15T06:19:49;31.60;;;23.55;;
72209;SDS011;60113;48.762;12.302;2024-02-15T06:22:15;28.63;;;22.58;;
72209;SDS011;60113;48.762;12.302;2024-02-15T06:24:44;30.38;;;23.60;;
72209;SDS011;60113;48.762;12.302;2024-02-15T06:27:09;31.50;;;22.83;;
72209;SDS011;60113;48.762;12.302;2024-02-15T06:29:36;33.35;;;24.73;;
72209;SDS011;60113;48.762;12.302;2024-02-15T06:32:19;38.55;;;28.50;;
72209;SDS011;60113;48.762;12.302;2024-02-15T06:35:03;37.92;;;30.10;;
72209;SDS011;60113;48.762;12.302;2024-02-15T06:37:48;38.13;;;31.27;;
72209;SDS011;60113;48.762;12.302;2024-02-15T06:40:32;34.92;;;28.50;;
72209;SDS011;60113;48.762;12.302;2024-02-15T06:42:58;41.65;;;31.98;;
72209;SDS011;60113;48.762;12.302;2024-02-15T06:45:23;67.13;;;44.90;;
72209;SDS011;60113;48.762;12.302;2024-02-15T06:47:49;69.75;;;44.33;;
72209;SDS011;60113;48.762;12.302;2024-02-15T06:50:14;51.60;;;35.03;;
72209;SDS011;60113;48.762;12.302;2024-02-15T06:52:42;39.42;;;29.08;;
72209;SDS011;60113;48.762;12.302;2024-02-15T06:55:07;42.65;;;31.40;;
72209;SDS011;60113;48.762;12.302;2024-02-15T06:57:37;41.25;;;32.45;;
72209;SDS011;60113;48.762;12.302;2024-02-15T07:00:06;46.50;;;35.17;;
72209;SDS011;60113;48.762;12.302;2024-02-15T07:02:39;43.00;;;33.72;;
72209;SDS011;60113;48.762;12.302;2024-02-15T07:05:05;47.10;;;35.25;;
72209;SDS011;60113;48.762;12.302;2024-02-15T07:07:31;45.03;;;32.38;;
72209;SDS011;60113;48.762;12.302;2024-02-15T07:09:58;43.88;;;33.53;;
72209;SDS011;60113;48.762;12.302;2024-02-15T07:12:23;40.88;;;32.08;;
72209;SDS011;60113;48.762;12.302;2024-02-15T07:14:49;45.30;;;33.05;;
72209;SDS011;60113;48.762;12.302;2024-02-15T07:17:14;48.30;;;34.42;;
72209;SDS011;60113;48.762;12.302;2024-02-15T07:19:43;43.63;;;32.05;;
72209;SDS011;60113;48.762;12.302;2024-02-15T07:22:09;36.45;;;28.95;;
72209;SDS011;60113;48.762;12.302;2024-02-15T07:24:35;39.88;;;30.50;;
72209;SDS011;60113;48.762;12.302;2024-02-15T07:27:06;36.63;;;28.35;;
72209;SDS011;60113;48.762;12.302;2024-02-15T07:29:31;39.50;;;29.02;;
72209;SDS011;60113;48.762;12.302;2024-02-15T07:31:58;25.38;;;20.33;;
72209;SDS011;60113;48.762;12.302;2024-02-15T07:34:26;23.58;;;18.60;;
72209;SDS011;60113;48.762;12.302;2024-02-15T07:36:51;27.65;;;20.98;;
72209;SDS011;60113;48.762;12.302;2024-02-15T07:39:17;22.67;;;17.65;;
72209;SDS011;60113;48.762;12.302;2024-02-15T07:41:49;24.38;;;17.63;;
72209;SDS011;60113;48.762;12.302;2024-02-15T07:44:15;23.65;;;19.88;;
72209;SDS011;60113;48.762;12.302;2024-02-15T07:46:42;23.73;;;19.25;;
72209;SDS011;60113;48.762;12.302;2024-02-15T07:49:08;26.77;;;20.02;;
72209;SDS011;60113;48.762;12.302;2024-02-15T07:51:34;24.80;;;18.85;;
72209;SDS011;60113;48.762;12.302;2024-02-15T07:53:59;27.48;;;19.27;;
72209;SDS011;60113;48.762;12.302;2024-02-15T07:56:26;24.55;;;14.80;;
72209;SDS011;60113;48.762;12.302;2024-02-15T07:58:52;18.90;;;14.65;;
72209;SDS011;60113;48.762;12.302;2024-02-15T08:01:18;22.02;;;15.15;;
72209;SDS011;60113;48.762;12.302;2024-02-15T08:03:46;16.17;;;13.38;;
72209;SDS011;60113;48.762;12.302;2024-02-15T08:06:13;18.77;;;12.38;;
72209;SDS011;60113;48.762;12.302;2024-02-15T08:08:42;14.15;;;9.73;;
72209;SDS011;60113;48.762;12.302;2024-02-15T08:11:15;14.67;;;10.63;;
72209;SDS011;60113;48.762;12.302;2024-02-15T08:13:43;10.82;;;8.38;;
72209;SDS011;60113;48.762;12.302;2024-02-15T08:16:20;14.77;;;8.27;;
72209;SDS011;60113;48.762;12.302;2024-02-15T08:18:52;12.10;;;6.50;;
72209;SDS011;60113;48.762;12.302;2024-02-15T08:21:29;11.65;;;6.45;;
72209;SDS011;60113;48.762;12.302;2024-02-15T08:23:58;8.57;;;5.20;;
72209;SDS011;60113;48.762;12.302;2024-02-15T08:26:25;13.77;;;8.75;;
72209;SDS011;60113;48.762;12.302;2024-02-15T08:28:51;10.38;;;7.45;;
72209;SDS011;60113;48.762;12.302;2024-02-15T08:31:17;7.97;;;6.15;;
72209;SDS011;60113;48.762;12.302;2024-02-15T08:33:44;9.00;;;5.78;;
72209;SDS011;60113;48.762;12.302;2024-02-15T08:36:11;7.85;;;5.30;;
72209;SDS011;60113;48.762;12.302;2024-02-15T08:38:38;7.03;;;5.10;;
72209;SDS011;60113;48.762;12.302;2024-02-15T08:41:04;8.82;;;5.82;;
72209;SDS011;60113;48.762;12.302;2024-02-15T08:43:31;9.63;;;6.45;;
72209;SDS011;60113;48.762;12.302;2024-02-15T08:45:57;9.90;;;5.30;;
72209;SDS011;60113;48.762;12.302;2024-02-15T08:48:23;7.63;;;4.97;;
72209;SDS011;60113;48.762;12.302;2024-02-15T08:50:49;12.15;;;8.15;;
72209;SDS011;60113;48.762;12.302;2024-02-15T08:53:15;13.80;;;6.40;;
72209;SDS011;60113;48.762;12.302;2024-02-15T08:55:40;9.40;;;5.78;;
72209;SDS011;60113;48.762;12.302;2024-02-15T08:58:06;8.00;;;5.68;;
72209;SDS011;60113;48.762;12.302;2024-02-15T09:00:34;8.48;;;4.28;;
72209;SDS011;60113;48.762;12.302;2024-02-15T09:02:59;8.18;;;4.57;;
72209;SDS011;60113;48.762;12.302;2024-02-15T09:05:25;11.10;;;4.57;;
72209;SDS011;60113;48.762;12.302;2024-02-15T09:07:50;9.48;;;3.80;;
72209;SDS011;60113;48.762;12.302;2024-02-15T09:10:16;6.53;;;3.75;;
72209;SDS011;60113;48.762;12.302;2024-02-15T09:12:43;5.97;;;3.50;;
72209;SDS011;60113;48.762;12.302;2024-02-15T09:15:12;10.68;;;3.90;;
72209;SDS011;60113;48.762;12.302;2024-02-15T09:17:37;4.90;;;3.50;;
72209;SDS011;60113;48.762;12.302;2024-02-15T09:20:10;5.05;;;3.45;;
72209;SDS011;60113;48.762;12.302;2024-02-15T09:22:50;7.25;;;3.10;;
72209;SDS011;60113;48.762;12.302;2024-02-15T09:25:17;4.95;;;2.90;;
72209;SDS011;60113;48.762;12.302;2024-02-15T09:27:43;4.60;;;3.08;;
72209;SDS011;60113;48.762;12.302;2024-02-15T09:30:09;4.82;;;2.95;;
72209;SDS011;60113;48.762;12.302;2024-02-15T09:32:41;6.28;;;3.10;;
72209;SDS011;60113;48.762;12.302;2024-02-15T09:35:07;5.70;;;3.20;;
72209;SDS011;60113;48.762;12.302;2024-02-15T09:37:34;4.53;;;2.90;;
72209;SDS011;60113;48.762;12.302;2024-02-15T09:40:00;5.35;;;3.00;;
72209;SDS011;60113;48.762;12.302;2024-02-15T09:42:31;7.72;;;2.70;;
72209;SDS011;60113;48.762;12.302;2024-02-15T09:45:00;5.82;;;3.10;;
72209;SDS011;60113;48.762;12.302;2024-02-15T09:47:30;7.32;;;3.50;;
72209;SDS011;60113;48.762;12.302;2024-02-15T09:52:25;5.38;;;2.70;;
72209;SDS011;60113;48.762;12.302;2024-02-15T09:54:52;5.22;;;2.47;;
72209;SDS011;60113;48.762;12.302;2024-02-15T09:57:18;4.25;;;2.50;;
72209;SDS011;60113;48.762;12.302;2024-02-15T09:59:44;4.72;;;2.58;;
72209;SDS011;60113;48.762;12.302;2024-02-15T10:02:10;4.90;;;2.80;;
72209;SDS011;60113;48.762;12.302;2024-02-15T10:04:39;4.25;;;2.38;;
72209;SDS011;60113;48.762;12.302;2024-02-15T10:07:05;4.47;;;2.55;;
72209;SDS011;60113;48.762;12.302;2024-02-15T10:09:33;4.40;;;2.65;;
72209;SDS011;60113;48.762;12.302;2024-02-15T10:12:02;3.53;;;2.40;;
72209;SDS011;60113;48.762;12.302;2024-02-15T10:14:29;4.80;;;2.15;;
72209;SDS011;60113;48.762;12.302;2024-02-15T10:16:55;4.10;;;2.50;;
72209;SDS011;60113;48.762;12.302;2024-02-15T10:19:21;4.55;;;2.65;;
72209;SDS011;60113;48.762;12.302;2024-02-15T10:21:53;7.70;;;2.33;;
72209;SDS011;60113;48.762;12.302;2024-02-15T10:24:22;6.60;;;2.40;;
72209;SDS011;60113;48.762;12.302;2024-02-15T10:27:00;4.28;;;2.45;;
72209;SDS011;60113;48.762;12.302;2024-02-15T10:29:29;5.40;;;2.28;;
72209;SDS011;60113;48.762;12.302;2024-02-15T10:31:59;5.32;;;2.60;;
72209;SDS011;60113;48.762;12.302;2024-02-15T10:34:26;4.63;;;2.47;;
72209;SDS011;60113;48.762;12.302;2024-02-15T10:37:11;4.97;;;2.13;;
72209;SDS011;60113;48.762;12.302;2024-02-15T10:39:37;4.13;;;1.83;;
72209;SDS011;60113;48.762;12.302;2024-02-15T10:42:03;4.68;;;1.88;;
72209;SDS011;60113;48.762;12.302;2024-02-15T10:44:31;4.78;;;1.80;;
72209;SDS011;60113;48.762;12.302;2024-02-15T10:46:59;3.67;;;2.17;;
72209;SDS011;60113;48.762;12.302;2024-02-15T10:49:25;5.10;;;2.10;;
72209;SDS011;60113;48.762;12.302;2024-02-15T10:51:56;4.43;;;1.92;;
72209;SDS011;60113;48.762;12.302;2024-02-15T10:57:18;4.78;;;1.92;;
72209;SDS011;60113;48.762;12.302;2024-02-15T10:59:56;4.28;;;2.00;;
72209;SDS011;60113;48.762;12.302;2024-02-15T11:02:30;4.32;;;1.75;;
72209;SDS011;60113;48.762;12.302;2024-02-15T11:05:05;3.33;;;1.92;;
72209;SDS011;60113;48.762;12.302;2024-02-15T11:07:35;4.45;;;1.77;;
72209;SDS011;60113;48.762;12.302;2024-02-15T11:10:05;4.75;;;1.83;;
72209;SDS011;60113;48.762;12.302;2024-02-15T11:12:36;3.60;;;1.73;;
72209;SDS011;60113;48.762;12.302;2024-02-15T11:15:02;2.88;;;1.75;;
72209;SDS011;60113;48.762;12.302;2024-02-15T11:18:02;3.38;;;1.98;;
72209;SDS011;60113;48.762;12.302;2024-02-15T11:22:57;2.42;;;1.50;;
72209;SDS011;60113;48.762;12.302;2024-02-15T11:25:33;3.28;;;1.50;;
72209;SDS011;60113;48.762;12.302;2024-02-15T11:30:56;5.55;;;1.80;;
72209;SDS011;60113;48.762;12.302;2024-02-15T11:36:06;3.13;;;1.73;;
72209;SDS011;60113;48.762;12.302;2024-02-15T11:38:33;2.10;;;1.30;;
72209;SDS011;60113;48.762;12.302;2024-02-15T11:41:00;6.22;;;1.65;;
72209;SDS011;60113;48.762;12.302;2024-02-15T11:46:26;3.28;;;1.52;;
72209;SDS011;60113;48.762;12.302;2024-02-15T11:48:59;2.92;;;1.27;;
72209;SDS011;60113;48.762;12.302;2024-02-15T11:51:27;3.92;;;1.45;;
72209;SDS011;60113;48.762;12.302;2024-02-15T11:54:02;5.57;;;1.40;;
72209;SDS011;60113;48.762;12.302;2024-02-15T11:59:09;4.90;;;1.48;;
72209;SDS011;60113;48.762;12.302;2024-02-15T12:01:43;2.47;;;1.20;;
72209;SDS011;60113;48.762;12.302;2024-02-15T12:04:28;4.30;;;1.15;;
72209;SDS011;60113;48.762;12.302;2024-02-15T12:07:14;4.68;;;1.40;;
72209;SDS011;60113;48.762;12.302;2024-02-15T12:09:59;4.30;;;1.30;;
72209;SDS011;60113;48.762;12.302;2024-02-15T12:12:53;3.75;;;1.38;;
72209;SDS011;60113;48.762;12.302;2024-02-15T12:16:00;3.35;;;1.10;;
72209;SDS011;60113;48.762;12.302;2024-02-15T12:21:13;4.78;;;1.45;;
72209;SDS011;60113;48.762;12.302;2024-02-15T12:23:42;3.20;;;1.20;;
72209;SDS011;60113;48.762;12.302;2024-02-15T12:26:08;4.55;;;1.20;;
72209;SDS011;60113;48.762;12.302;2024-02-15T12:28:34;3.63;;;1.20;;
72209;SDS011;60113;48.762;12.302;2024-02-15T12:31:01;5.18;;;1.80;;
72209;SDS011;60113;48.762;12.302;2024-02-15T12:33:27;5.63;;;1.67;;
72209;SDS011;60113;48.762;12.302;2024-02-15T12:36:06;4.22;;;1.58;;
72209;SDS011;60113;48.762;12.302;2024-02-15T12:38:32;4.47;;;1.83;;
72209;SDS011;60113;48.762;12.302;2024-02-15T12:40:59;5.57;;;2.50;;
72209;SDS011;60113;48.762;12.302;2024-02-15T12:43:27;3.60;;;1.65;;
72209;SDS011;60113;48.762;12.302;2024-02-15T12:45:53;3.22;;;1.50;;
72209;SDS011;60113;48.762;12.302;2024-02-15T12:48:22;3.22;;;1.15;;
72209;SDS011;60113;48.762;12.302;2024-02-15T12:50:47;5.80;;;1.50;;
72209;SDS011;60113;48.762;12.302;2024-02-15T12:53:20;2.88;;;1.20;;
72209;SDS011;60113;48.762;12.302;2024-02-15T12:55:51;4.70;;;1.05;;
72209;SDS011;60113;48.762;12.302;2024-02-15T12:58:20;2.08;;;1.20;;
72209;SDS011;60113;48.762;12.302;2024-02-15T13:00:45;5.10;;;1.50;;
72209;SDS011;60113;48.762;12.302;2024-02-15T13:03:11;3.50;;;1.45;;
72209;SDS011;60113;48.762;12.302;2024-02-15T13:05:39;3.13;;;1.20;;
72209;SDS011;60113;48.762;12.302;2024-02-15T13:08:05;4.03;;;1.55;;
72209;SDS011;60113;48.762;12.302;2024-02-15T13:10:34;4.90;;;1.23;;
72209;SDS011;60113;48.762;12.302;2024-02-15T13:13:00;2.33;;;1.00;;
72209;SDS011;60113;48.762;12.302;2024-02-15T13:15:26;4.05;;;1.20;;
72209;SDS011;60113;48.762;12.302;2024-02-15T13:17:55;4.10;;;1.33;;
72209;SDS011;60113;48.762;12.302;2024-02-15T13:20:21;4.70;;;1.50;;
72209;SDS011;60113;48.762;12.302;2024-02-15T13:23:07;3.20;;;1.58;;
72209;SDS011;60113;48.762;12.302;2024-02-15T13:25:34;3.85;;;1.27;;
72209;SDS011;60113;48.762;12.302;2024-02-15T13:28:02;4.47;;;2.20;;
72209;SDS011;60113;48.762;12.302;2024-02-15T13:30:29;6.05;;;1.77;;
72209;SDS011;60113;48.762;12.302;2024-02-15T13:32:55;3.88;;;1.60;;
72209;SDS011;60113;48.762;12.302;2024-02-15T13:35:21;3.75;;;1.88;;
72209;SDS011;60113;48.762;12.302;2024-02-15T13:37:52;5.32;;;2.20;;
72209;SDS011;60113;48.762;12.302;2024-02-15T13:40:26;4.63;;;2.55;;
72209;SDS011;60113;48.762;12.302;2024-02-15T13:42:54;5.65;;;2.55;;
72209;SDS011;60113;48.762;12.302;2024-02-15T13:45:24;5.93;;;2.42;;
72209;SDS011;60113;48.762;12.302;2024-02-15T13:47:57;3.78;;;2.55;;
72209;SDS011;60113;48.762;12.302;2024-02-15T13:50:26;4.53;;;2.47;;
72209;SDS011;60113;48.762;12.302;2024-02-15T13:52:53;14.88;;;2.90;;
72209;SDS011;60113;48.762;12.302;2024-02-15T13:55:21;5.63;;;2.63;;
72209;SDS011;60113;48.762;12.302;2024-02-15T13:57:47;4.78;;;2.67;;
72209;SDS011;60113;48.762;12.302;2024-02-15T14:00:13;8.52;;;2.03;;
72209;SDS011;60113;48.762;12.302;2024-02-15T14:02:53;4.60;;;2.20;;
72209;SDS011;60113;48.762;12.302;2024-02-15T14:05:20;3.30;;;1.65;;
72209;SDS011;60113;48.762;12.302;2024-02-15T14:07:53;4.30;;;1.92;;
72209;SDS011;60113;48.762;12.302;2024-02-15T14:10:21;6.47;;;2.17;;
72209;SDS011;60113;48.762;12.302;2024-02-15T14:12:48;4.53;;;1.90;;
72209;SDS011;60113;48.762;12.302;2024-02-15T14:15:15;7.53;;;2.08;;
72209;SDS011;60113;48.762;12.302;2024-02-15T14:17:42;4.00;;;2.10;;
72209;SDS011;60113;48.762;12.302;2024-02-15T14:20:09;5.60;;;2.22;;
72209;SDS011;60113;48.762;12.302;2024-02-15T14:22:48;7.07;;;3.60;;
72209;SDS011;60113;48.762;12.302;2024-02-15T14:25:18;8.48;;;4.85;;
72209;SDS011;60113;48.762;12.302;2024-02-15T14:27:44;10.07;;;3.20;;
72209;SDS011;60113;48.762;12.302;2024-02-15T14:30:12;8.20;;;3.70;;
72209;SDS011;60113;48.762;12.302;2024-02-15T14:32:56;4.05;;;2.00;;
72209;SDS011;60113;48.762;12.302;2024-02-15T14:35:25;7.13;;;2.60;;
72209;SDS011;60113;48.762;12.302;2024-02-15T14:37:50;5.72;;;2.70;;
72209;SDS011;60113;48.762;12.302;2024-02-15T14:40:16;4.25;;;2.65;;
72209;SDS011;60113;48.762;12.302;2024-02-15T14:42:42;4.75;;;2.70;;
72209;SDS011;60113;48.762;12.302;2024-02-15T14:45:11;3.92;;;2.55;;
72209;SDS011;60113;48.762;12.302;2024-02-15T14:47:37;9.20;;;2.70;;